Portada
METAR-TAF:

METAR-TAF

Aeropuertos :

Aeropuerto de Rodez-Aveyron

Rodez, Francia

latitud: 44-24N, longitud: 002-29E, altitud: 581 m

Observación

El informe se hizo hace 41 minutos, a las 01:30 UTC
Viento 14 kt del este-sureste
Temperatura 8°C
Humedad 66%
Presión 1026 hPa
Visibilidad 10 km o más
sin nubes por debajo de 1500 m y sin presencia de cumulonimbus.

METAR: LFCR 020130Z AUTO 12014KT CAVOK 08/02 Q1026 BECMG 12016G26KT

Hora: 03:11 (02:11 UTC)

Pronóstico

El informe se hizo hace 3 horas y 11 minutos, a las 23:00 UTC
Pronóstico válido del 02 a las 00 UTC al 02 a las 24 UTC
Viento 16 kt del este-sureste con ráfagas de 26 kt
Visibilidad 10 km o más
sin nubes por debajo de 1500 m y sin presencia de cumulonimbus.
Evolucionando progresivamente
del 02 a las 21 UTC al 02 a las 24 UTC
Viento 12 kt del sureste

TAF: LFCR 012300Z 0200/0224 12016G26KT CAVOK BECMG 0221/0224 13012KT

Observaciones y pronósticos meteorológicos de más de 4000 aeropuertos (mensajes METAR y TAF).

Los puntos amarillos y rojos representan las estaciones disponibles.

Ponga el ratón en el punto deseado para ver el nombre de la estación.

Haga clic para ver las observaciones y los pronósticos meteorológicos.

Para cambiar el mapa : haga clic en los botones verdes con una cruz de color negro para hacer un zoom, en el botón verde con un guión para alejar o en las flechas verdes para mapas adyacentes.


METAR-TAF: